sensor_id;sensor_type;location;lat;lon;timestamp;temperature;humidity
28845;DHT22;15976;47.938;7.758;2023-03-05T00:01:20;3.30;65.60
28845;DHT22;15976;47.938;7.758;2023-03-05T00:03:52;3.30;65.50
28845;DHT22;15976;47.938;7.758;2023-03-05T00:06:21;3.30;65.50
28845;DHT22;15976;47.938;7.758;2023-03-05T00:08:48;3.30;65.50
28845;DHT22;15976;47.938;7.758;2023-03-05T00:11:15;3.30;65.60
28845;DHT22;15976;47.938;7.758;2023-03-05T00:13:42;3.30;65.60
28845;DHT22;15976;47.938;7.758;2023-03-05T00:16:11;3.30;65.70
28845;DHT22;15976;47.938;7.758;2023-03-05T00:18:39;3.30;65.70
28845;DHT22;15976;47.938;7.758;2023-03-05T00:21:21;3.30;65.80
28845;DHT22;15976;47.938;7.758;2023-03-05T00:23:49;3.30;65.80
28845;DHT22;15976;47.938;7.758;2023-03-05T00:26:18;3.30;65.60
28845;DHT22;15976;47.938;7.758;2023-03-05T00:28:45;3.20;65.30
28845;DHT22;15976;47.938;7.758;2023-03-05T00:31:19;3.20;65.40
28845;DHT22;15976;47.938;7.758;2023-03-05T00:33:55;3.20;65.40
28845;DHT22;15976;47.938;7.758;2023-03-05T00:36:23;3.20;65.50
28845;DHT22;15976;47.938;7.758;2023-03-05T00:38:51;3.20;65.50
28845;DHT22;15976;47.938;7.758;2023-03-05T00:41:18;3.10;65.40
28845;DHT22;15976;47.938;7.758;2023-03-05T00:43:45;3.10;65.50
28845;DHT22;15976;47.938;7.758;2023-03-05T00:46:12;3.10;65.50
28845;DHT22;15976;47.938;7.758;2023-03-05T00:48:39;3.00;65.70
28845;DHT22;15976;47.938;7.758;2023-03-05T00:51:07;3.00;65.90
28845;DHT22;15976;47.938;7.758;2023-03-05T00:53:34;3.00;65.90
28845;DHT22;15976;47.938;7.758;2023-03-05T00:56:02;3.00;66.00
28845;DHT22;15976;47.938;7.758;2023-03-05T00:58:29;3.00;66.10
28845;DHT22;15976;47.938;7.758;2023-03-05T01:00:58;2.90;66.00
28845;DHT22;15976;47.938;7.758;2023-03-05T01:03:26;2.90;66.20
28845;DHT22;15976;47.938;7.758;2023-03-05T01:05:54;2.90;66.20
28845;DHT22;15976;47.938;7.758;2023-03-05T01:08:22;2.90;66.20
28845;DHT22;15976;47.938;7.758;2023-03-05T01:10:49;2.80;66.10
28845;DHT22;15976;47.938;7.758;2023-03-05T01:13:16;2.80;66.10
28845;DHT22;15976;47.938;7.758;2023-03-05T01:15:44;2.80;66.10
28845;DHT22;15976;47.938;7.758;2023-03-05T01:18:13;2.70;66.10
28845;DHT22;15976;47.938;7.758;2023-03-05T01:20:40;2.80;66.40
28845;DHT22;15976;47.938;7.758;2023-03-05T01:23:08;2.70;66.40
28845;DHT22;15976;47.938;7.758;2023-03-05T01:25:35;2.70;66.40
28845;DHT22;15976;47.938;7.758;2023-03-05T01:28:02;2.70;66.40
28845;DHT22;15976;47.938;7.758;2023-03-05T01:30:31;2.70;66.50
28845;DHT22;15976;47.938;7.758;2023-03-05T01:32:58;2.70;66.60
28845;DHT22;15976;47.938;7.758;2023-03-05T01:35:25;2.70;66.60
28845;DHT22;15976;47.938;7.758;2023-03-05T01:37:53;2.70;66.50
28845;DHT22;15976;47.938;7.758;2023-03-05T01:40:24;2.70;67.40
28845;DHT22;15976;47.938;7.758;2023-03-05T01:43:20;2.70;66.70
28845;DHT22;15976;47.938;7.758;2023-03-05T01:46:26;2.80;66.80
28845;DHT22;15976;47.938;7.758;2023-03-05T01:51:26;2.80;66.60
28845;DHT22;15976;47.938;7.758;2023-03-05T01:53:55;2.80;66.60
28845;DHT22;15976;47.938;7.758;2023-03-05T01:56:25;2.70;66.80
28845;DHT22;15976;47.938;7.758;2023-03-05T01:58:53;2.60;67.10
28845;DHT22;15976;47.938;7.758;2023-03-05T02:01:23;2.40;67.40
28845;DHT22;15976;47.938;7.758;2023-03-05T02:03:50;2.40;67.90
28845;DHT22;15976;47.938;7.758;2023-03-05T02:06:17;2.30;68.20
28845;DHT22;15976;47.938;7.758;2023-03-05T02:08:44;2.30;68.50
28845;DHT22;15976;47.938;7.758;2023-03-05T02:11:11;2.30;68.60
28845;DHT22;15976;47.938;7.758;2023-03-05T02:13:38;2.30;68.70
28845;DHT22;15976;47.938;7.758;2023-03-05T02:16:06;2.30;68.60
28845;DHT22;15976;47.938;7.758;2023-03-05T02:18:34;2.40;68.50
28845;DHT22;15976;47.938;7.758;2023-03-05T02:21:03;2.40;68.40
28845;DHT22;15976;47.938;7.758;2023-03-05T02:23:32;2.50;68.30
28845;DHT22;15976;47.938;7.758;2023-03-05T02:26:03;2.50;68.20
28845;DHT22;15976;47.938;7.758;2023-03-05T02:28:46;2.50;68.20
28845;DHT22;15976;47.938;7.758;2023-03-05T02:31:17;2.50;68.10
28845;DHT22;15976;47.938;7.758;2023-03-05T02:33:46;2.50;67.90
28845;DHT22;15976;47.938;7.758;2023-03-05T02:36:14;2.40;67.80
28845;DHT22;15976;47.938;7.758;2023-03-05T02:38:42;2.40;68.00
28845;DHT22;15976;47.938;7.758;2023-03-05T02:41:10;2.40;68.10
28845;DHT22;15976;47.938;7.758;2023-03-05T02:43:37;2.40;68.20
28845;DHT22;15976;47.938;7.758;2023-03-05T02:46:05;2.40;68.20
28845;DHT22;15976;47.938;7.758;2023-03-05T02:48:33;2.30;68.20
28845;DHT22;15976;47.938;7.758;2023-03-05T02:51:02;2.30;68.10
28845;DHT22;15976;47.938;7.758;2023-03-05T02:53:30;2.30;68.80
28845;DHT22;15976;47.938;7.758;2023-03-05T02:55:57;2.30;68.10
28845;DHT22;15976;47.938;7.758;2023-03-05T02:58:23;2.30;68.10
28845;DHT22;15976;47.938;7.758;2023-03-05T03:00:50;2.20;68.00
28845;DHT22;15976;47.938;7.758;2023-03-05T03:03:18;2.20;68.20
28845;DHT22;15976;47.938;7.758;2023-03-05T03:05:45;2.20;68.30
28845;DHT22;15976;47.938;7.758;2023-03-05T03:08:12;2.20;68.20
28845;DHT22;15976;47.938;7.758;2023-03-05T03:10:39;2.20;68.30
28845;DHT22;15976;47.938;7.758;2023-03-05T03:13:05;2.20;68.30
28845;DHT22;15976;47.938;7.758;2023-03-05T03:15:32;2.10;68.30
28845;DHT22;15976;47.938;7.758;2023-03-05T03:18:00;2.10;68.30
28845;DHT22;15976;47.938;7.758;2023-03-05T03:20:27;2.20;68.40
28845;DHT22;15976;47.938;7.758;2023-03-05T03:22:54;2.10;68.20
28845;DHT22;15976;47.938;7.758;2023-03-05T03:25:22;2.20;68.20
28845;DHT22;15976;47.938;7.758;2023-03-05T03:27:51;2.20;68.20
28845;DHT22;15976;47.938;7.758;2023-03-05T03:30:18;2.20;68.30
28845;DHT22;15976;47.938;7.758;2023-03-05T03:32:46;2.20;68.20
28845;DHT22;15976;47.938;7.758;2023-03-05T03:35:13;2.20;68.00
28845;DHT22;15976;47.938;7.758;2023-03-05T03:37:40;2.20;67.90
28845;DHT22;15976;47.938;7.758;2023-03-05T03:40:07;2.20;68.00
28845;DHT22;15976;47.938;7.758;2023-03-05T03:42:34;2.30;68.10
28845;DHT22;15976;47.938;7.758;2023-03-05T03:45:02;2.30;68.00
28845;DHT22;15976;47.938;7.758;2023-03-05T03:47:30;2.30;68.10
28845;DHT22;15976;47.938;7.758;2023-03-05T03:49:57;2.30;68.20
28845;DHT22;15976;47.938;7.758;2023-03-05T03:52:25;2.40;68.40
28845;DHT22;15976;47.938;7.758;2023-03-05T03:54:52;2.40;69.20
28845;DHT22;15976;47.938;7.758;2023-03-05T03:57:21;2.40;68.40
28845;DHT22;15976;47.938;7.758;2023-03-05T03:59:48;2.40;68.40
28845;DHT22;15976;47.938;7.758;2023-03-05T04:02:16;2.40;68.50
28845;DHT22;15976;47.938;7.758;2023-03-05T04:04:43;2.50;68.70
28845;DHT22;15976;47.938;7.758;2023-03-05T04:07:10;2.50;68.80
28845;DHT22;15976;47.938;7.758;2023-03-05T04:09:37;2.50;68.90
28845;DHT22;15976;47.938;7.758;2023-03-05T04:12:04;2.50;68.80
28845;DHT22;15976;47.938;7.758;2023-03-05T04:14:31;2.50;69.00
28845;DHT22;15976;47.938;7.758;2023-03-05T04:16:59;2.50;69.30
28845;DHT22;15976;47.938;7.758;2023-03-05T04:19:26;2.60;69.30
28845;DHT22;15976;47.938;7.758;2023-03-05T04:21:54;2.60;69.20
28845;DHT22;15976;47.938;7.758;2023-03-05T04:24:21;2.70;69.30
28845;DHT22;15976;47.938;7.758;2023-03-05T04:26:48;2.70;69.30
28845;DHT22;15976;47.938;7.758;2023-03-05T04:29:14;2.70;69.20
28845;DHT22;15976;47.938;7.758;2023-03-05T04:31:42;2.80;69.00
28845;DHT22;15976;47.938;7.758;2023-03-05T04:34:09;2.80;68.90
28845;DHT22;15976;47.938;7.758;2023-03-05T04:36:36;2.80;68.90
28845;DHT22;15976;47.938;7.758;2023-03-05T04:39:03;2.90;68.90
28845;DHT22;15976;47.938;7.758;2023-03-05T04:41:30;2.90;68.80
28845;DHT22;15976;47.938;7.758;2023-03-05T04:43:57;3.00;68.80
28845;DHT22;15976;47.938;7.758;2023-03-05T04:46:24;3.00;68.70
28845;DHT22;15976;47.938;7.758;2023-03-05T04:48:51;3.00;68.70
28845;DHT22;15976;47.938;7.758;2023-03-05T04:51:18;3.00;68.60
28845;DHT22;15976;47.938;7.758;2023-03-05T04:53:45;3.10;68.70
28845;DHT22;15976;47.938;7.758;2023-03-05T04:56:12;3.10;68.70
28845;DHT22;15976;47.938;7.758;2023-03-05T04:58:39;3.10;69.50
28845;DHT22;15976;47.938;7.758;2023-03-05T05:01:06;3.10;68.70
28845;DHT22;15976;47.938;7.758;2023-03-05T05:03:33;3.10;68.60
28845;DHT22;15976;47.938;7.758;2023-03-05T05:06:00;3.20;68.60
28845;DHT22;15976;47.938;7.758;2023-03-05T05:08:28;3.20;68.50
28845;DHT22;15976;47.938;7.758;2023-03-05T05:11:00;3.20;68.40
28845;DHT22;15976;47.938;7.758;2023-03-05T05:13:28;3.30;68.40
28845;DHT22;15976;47.938;7.758;2023-03-05T05:15:55;3.30;68.40
28845;DHT22;15976;47.938;7.758;2023-03-05T05:18:24;3.30;68.40
28845;DHT22;15976;47.938;7.758;2023-03-05T05:20:51;3.20;68.30
28845;DHT22;15976;47.938;7.758;2023-03-05T05:23:18;3.30;68.30
28845;DHT22;15976;47.938;7.758;2023-03-05T05:25:45;3.30;68.30
28845;DHT22;15976;47.938;7.758;2023-03-05T05:28:12;3.30;68.40
28845;DHT22;15976;47.938;7.758;2023-03-05T05:30:39;3.30;68.30
28845;DHT22;15976;47.938;7.758;2023-03-05T05:33:06;3.40;68.30
28845;DHT22;15976;47.938;7.758;2023-03-05T05:35:32;3.40;68.40
28845;DHT22;15976;47.938;7.758;2023-03-05T05:38:00;3.30;68.40
28845;DHT22;15976;47.938;7.758;2023-03-05T05:40:27;3.40;68.50
28845;DHT22;15976;47.938;7.758;2023-03-05T05:42:53;3.30;68.50
28845;DHT22;15976;47.938;7.758;2023-03-05T05:45:20;3.30;68.60
28845;DHT22;15976;47.938;7.758;2023-03-05T05:47:47;3.40;68.70
28845;DHT22;15976;47.938;7.758;2023-03-05T05:50:15;3.40;68.70
28845;DHT22;15976;47.938;7.758;2023-03-05T05:52:42;3.30;68.60
28845;DHT22;15976;47.938;7.758;2023-03-05T05:55:09;3.30;68.70
28845;DHT22;15976;47.938;7.758;2023-03-05T05:57:37;3.30;69.50
28845;DHT22;15976;47.938;7.758;2023-03-05T06:00:07;3.30;68.70
28845;DHT22;15976;47.938;7.758;2023-03-05T06:02:37;3.30;68.70
28845;DHT22;15976;47.938;7.758;2023-03-05T06:05:05;3.20;68.70
28845;DHT22;15976;47.938;7.758;2023-03-05T06:07:33;3.20;68.70
28845;DHT22;15976;47.938;7.758;2023-03-05T06:10:01;3.20;68.60
28845;DHT22;15976;47.938;7.758;2023-03-05T06:12:29;3.20;68.40
28845;DHT22;15976;47.938;7.758;2023-03-05T06:14:56;3.10;68.40
28845;DHT22;15976;47.938;7.758;2023-03-05T06:17:23;3.10;68.40
28845;DHT22;15976;47.938;7.758;2023-03-05T06:19:57;3.20;68.70
28845;DHT22;15976;47.938;7.758;2023-03-05T06:22:24;3.20;68.60
28845;DHT22;15976;47.938;7.758;2023-03-05T06:24:51;3.30;68.60
28845;DHT22;15976;47.938;7.758;2023-03-05T06:27:18;3.30;68.50
28845;DHT22;15976;47.938;7.758;2023-03-05T06:29:45;3.30;68.30
28845;DHT22;15976;47.938;7.758;2023-03-05T06:32:12;3.40;68.10
28845;DHT22;15976;47.938;7.758;2023-03-05T06:34:39;3.40;68.00
28845;DHT22;15976;47.938;7.758;2023-03-05T06:37:06;3.40;67.80
28845;DHT22;15976;47.938;7.758;2023-03-05T06:39:33;3.40;67.70
28845;DHT22;15976;47.938;7.758;2023-03-05T06:42:00;3.50;67.60
28845;DHT22;15976;47.938;7.758;2023-03-05T06:44:27;3.60;67.50
28845;DHT22;15976;47.938;7.758;2023-03-05T06:46:54;3.60;67.20
28845;DHT22;15976;47.938;7.758;2023-03-05T06:49:21;3.70;67.10
28845;DHT22;15976;47.938;7.758;2023-03-05T06:51:48;3.70;66.90
28845;DHT22;15976;47.938;7.758;2023-03-05T06:54:16;3.80;66.80
28845;DHT22;15976;47.938;7.758;2023-03-05T06:56:45;3.80;66.60
28845;DHT22;15976;47.938;7.758;2023-03-05T06:59:14;3.90;67.30
28845;DHT22;15976;47.938;7.758;2023-03-05T07:01:43;4.00;66.40
28845;DHT22;15976;47.938;7.758;2023-03-05T07:04:13;4.00;66.20
28845;DHT22;15976;47.938;7.758;2023-03-05T07:06:41;4.10;66.00
28845;DHT22;15976;47.938;7.758;2023-03-05T07:09:13;4.20;66.00
28845;DHT22;15976;47.938;7.758;2023-03-05T07:11:41;4.20;65.80
28845;DHT22;15976;47.938;7.758;2023-03-05T07:14:08;4.30;65.70
28845;DHT22;15976;47.938;7.758;2023-03-05T07:16:35;4.40;65.60
28845;DHT22;15976;47.938;7.758;2023-03-05T07:19:04;4.50;65.40
28845;DHT22;15976;47.938;7.758;2023-03-05T07:21:33;4.60;65.30
28845;DHT22;15976;47.938;7.758;2023-03-05T07:24:03;4.60;65.20
28845;DHT22;15976;47.938;7.758;2023-03-05T07:26:31;4.70;65.10
28845;DHT22;15976;47.938;7.758;2023-03-05T07:29:00;4.70;65.00
28845;DHT22;15976;47.938;7.758;2023-03-05T07:31:27;4.80;64.80
28845;DHT22;15976;47.938;7.758;2023-03-05T07:33:59;4.90;64.80
28845;DHT22;15976;47.938;7.758;2023-03-05T07:36:27;5.00;64.60
28845;DHT22;15976;47.938;7.758;2023-03-05T07:38:54;5.10;64.60
28845;DHT22;15976;47.938;7.758;2023-03-05T07:41:21;5.10;64.50
28845;DHT22;15976;47.938;7.758;2023-03-05T07:43:51;5.20;64.60
28845;DHT22;15976;47.938;7.758;2023-03-05T07:46:21;5.30;64.60
28845;DHT22;15976;47.938;7.758;2023-03-05T07:48:49;5.30;64.50
28845;DHT22;15976;47.938;7.758;2023-03-05T07:51:17;5.40;64.50
28845;DHT22;15976;47.938;7.758;2023-03-05T07:53:47;5.40;64.40
28845;DHT22;15976;47.938;7.758;2023-03-05T07:56:33;5.50;64.40
28845;DHT22;15976;47.938;7.758;2023-03-05T07:59:05;5.50;64.40
28845;DHT22;15976;47.938;7.758;2023-03-05T08:01:33;5.60;64.40
28845;DHT22;15976;47.938;7.758;2023-03-05T08:04:01;5.60;64.30
28845;DHT22;15976;47.938;7.758;2023-03-05T08:06:28;5.70;64.40
28845;DHT22;15976;47.938;7.758;2023-03-05T08:08:57;5.70;64.30
28845;DHT22;15976;47.938;7.758;2023-03-05T08:11:24;5.80;64.20
28845;DHT22;15976;47.938;7.758;2023-03-05T08:13:51;5.80;64.00
28845;DHT22;15976;47.938;7.758;2023-03-05T08:16:19;5.90;64.00
28845;DHT22;15976;47.938;7.758;2023-03-05T08:18:47;5.90;64.70
28845;DHT22;15976;47.938;7.758;2023-03-05T08:21:19;6.00;63.70
28845;DHT22;15976;47.938;7.758;2023-03-05T08:23:47;6.10;63.60
28845;DHT22;15976;47.938;7.758;2023-03-05T08:26:20;6.20;63.50
28845;DHT22;15976;47.938;7.758;2023-03-05T08:28:47;6.20;63.30
28845;DHT22;15976;47.938;7.758;2023-03-05T08:31:16;6.30;63.10
28845;DHT22;15976;47.938;7.758;2023-03-05T08:33:43;6.40;63.10
28845;DHT22;15976;47.938;7.758;2023-03-05T08:36:10;6.50;62.90
28845;DHT22;15976;47.938;7.758;2023-03-05T08:38:37;6.60;62.80
28845;DHT22;15976;47.938;7.758;2023-03-05T08:41:04;6.60;62.50
28845;DHT22;15976;47.938;7.758;2023-03-05T08:43:31;6.70;62.20
28845;DHT22;15976;47.938;7.758;2023-03-05T08:46:00;6.80;62.00
28845;DHT22;15976;47.938;7.758;2023-03-05T08:48:28;6.90;62.00
28845;DHT22;15976;47.938;7.758;2023-03-05T08:50:55;7.00;61.70
28845;DHT22;15976;47.938;7.758;2023-03-05T08:53:23;7.00;61.40
28845;DHT22;15976;47.938;7.758;2023-03-05T08:55:54;7.10;61.10
28845;DHT22;15976;47.938;7.758;2023-03-05T08:58:22;7.20;60.80
28845;DHT22;15976;47.938;7.758;2023-03-05T09:00:50;7.20;60.70
28845;DHT22;15976;47.938;7.758;2023-03-05T09:03:17;7.30;60.60
28845;DHT22;15976;47.938;7.758;2023-03-05T09:05:44;7.40;60.20
28845;DHT22;15976;47.938;7.758;2023-03-05T09:08:11;7.40;61.00
28845;DHT22;15976;47.938;7.758;2023-03-05T09:10:41;7.50;60.10
28845;DHT22;15976;47.938;7.758;2023-03-05T09:13:08;7.50;59.80
28845;DHT22;15976;47.938;7.758;2023-03-05T09:15:36;7.60;59.60
28845;DHT22;15976;47.938;7.758;2023-03-05T09:18:04;7.60;59.30
28845;DHT22;15976;47.938;7.758;2023-03-05T09:20:31;7.70;59.00
28845;DHT22;15976;47.938;7.758;2023-03-05T09:22:58;7.70;58.70
28845;DHT22;15976;47.938;7.758;2023-03-05T09:25:26;7.70;58.70
28845;DHT22;15976;47.938;7.758;2023-03-05T09:27:53;7.70;58.70
28845;DHT22;15976;47.938;7.758;2023-03-05T09:30:20;7.70;58.50
28845;DHT22;15976;47.938;7.758;2023-03-05T09:32:48;7.80;58.30
28845;DHT22;15976;47.938;7.758;2023-03-05T09:35:16;7.80;58.10
28845;DHT22;15976;47.938;7.758;2023-03-05T09:37:44;7.90;58.00
28845;DHT22;15976;47.938;7.758;2023-03-05T09:40:16;7.90;57.90
28845;DHT22;15976;47.938;7.758;2023-03-05T09:43:10;7.90;57.70
28845;DHT22;15976;47.938;7.758;2023-03-05T09:45:54;8.00;57.70
28845;DHT22;15976;47.938;7.758;2023-03-05T09:51:02;8.10;57.70
28845;DHT22;15976;47.938;7.758;2023-03-05T09:54:09;8.10;57.50
28845;DHT22;15976;47.938;7.758;2023-03-05T09:56:35;8.30;57.30
28845;DHT22;15976;47.938;7.758;2023-03-05T10:01:58;8.40;56.90
28845;DHT22;15976;47.938;7.758;2023-03-05T10:04:43;8.40;56.80
28845;DHT22;15976;47.938;7.758;2023-03-05T10:07:31;8.50;56.80
28845;DHT22;15976;47.938;7.758;2023-03-05T10:12:43;8.60;56.50
28845;DHT22;15976;47.938;7.758;2023-03-05T10:15:15;8.50;56.30
28845;DHT22;15976;47.938;7.758;2023-03-05T10:23:15;8.60;56.50
28845;DHT22;15976;47.938;7.758;2023-03-05T10:26:27;8.70;56.60
28845;DHT22;15976;47.938;7.758;2023-03-05T10:45:43;9.40;55.90
28845;DHT22;15976;47.938;7.758;2023-03-05T10:48:42;9.60;55.80
28845;DHT22;15976;47.938;7.758;2023-03-05T10:54:15;9.80;55.50
28845;DHT22;15976;47.938;7.758;2023-03-05T10:56:44;9.90;55.40
28845;DHT22;15976;47.938;7.758;2023-03-05T10:59:11;9.90;55.10
28845;DHT22;15976;47.938;7.758;2023-03-05T11:01:38;10.00;54.80
28845;DHT22;15976;47.938;7.758;2023-03-05T11:04:08;10.00;54.30
28845;DHT22;15976;47.938;7.758;2023-03-05T11:06:50;10.10;54.10
28845;DHT22;15976;47.938;7.758;2023-03-05T11:09:29;10.10;53.90
28845;DHT22;15976;47.938;7.758;2023-03-05T11:12:03;10.30;53.80
28845;DHT22;15976;47.938;7.758;2023-03-05T11:15:03;10.40;53.50
28845;DHT22;15976;47.938;7.758;2023-03-05T11:17:31;10.50;53.00
28845;DHT22;15976;47.938;7.758;2023-03-05T11:25:57;11.10;51.90
28845;DHT22;15976;47.938;7.758;2023-03-05T11:28:40;11.40;51.60
28845;DHT22;15976;47.938;7.758;2023-03-05T11:39:22;12.20;50.40
28845;DHT22;15976;47.938;7.758;2023-03-05T11:41:57;12.30;50.20
28845;DHT22;15976;47.938;7.758;2023-03-05T11:52:51;12.70;49.00
28845;DHT22;15976;47.938;7.758;2023-03-05T11:58:35;12.90;48.70
28845;DHT22;15976;47.938;7.758;2023-03-05T12:01:26;13.10;48.60
28845;DHT22;15976;47.938;7.758;2023-03-05T12:03:54;13.20;48.30
28845;DHT22;15976;47.938;7.758;2023-03-05T12:08:55;13.30;48.00
28845;DHT22;15976;47.938;7.758;2023-03-05T12:11:27;13.30;47.80
28845;DHT22;15976;47.938;7.758;2023-03-05T12:14:05;13.30;47.90
28845;DHT22;15976;47.938;7.758;2023-03-05T12:17:03;13.30;47.90
28845;DHT22;15976;47.938;7.758;2023-03-05T12:22:21;13.40;47.60
28845;DHT22;15976;47.938;7.758;2023-03-05T12:24:49;13.50;47.50
28845;DHT22;15976;47.938;7.758;2023-03-05T12:27:34;13.50;47.40
28845;DHT22;15976;47.938;7.758;2023-03-05T12:30:03;13.60;47.00
28845;DHT22;15976;47.938;7.758;2023-03-05T12:34:59;13.60;47.00
28845;DHT22;15976;47.938;7.758;2023-03-05T12:45:37;13.80;46.40
28845;DHT22;15976;47.938;7.758;2023-03-05T12:48:33;13.80;46.30
28845;DHT22;15976;47.938;7.758;2023-03-05T12:50:57;13.90;46.30
28845;DHT22;15976;47.938;7.758;2023-03-05T12:53:24;13.80;46.40
28845;DHT22;15976;47.938;7.758;2023-03-05T12:56:16;13.90;46.30
28845;DHT22;15976;47.938;7.758;2023-03-05T12:58:57;13.90;46.10
28845;DHT22;15976;47.938;7.758;2023-03-05T13:01:45;13.90;46.00
28845;DHT22;15976;47.938;7.758;2023-03-05T13:04:16;13.90;45.90
28845;DHT22;15976;47.938;7.758;2023-03-05T13:06:45;13.90;46.00
28845;DHT22;15976;47.938;7.758;2023-03-05T13:09:24;13.90;45.80
28845;DHT22;15976;47.938;7.758;2023-03-05T13:11:52;13.90;45.50
28845;DHT22;15976;47.938;7.758;2023-03-05T13:14:42;14.10;45.50
28845;DHT22;15976;47.938;7.758;2023-03-05T13:17:33;14.10;45.40
28845;DHT22;15976;47.938;7.758;2023-03-05T13:20:02;14.10;45.20
28845;DHT22;15976;47.938;7.758;2023-03-05T13:22:32;14.00;45.30
28845;DHT22;15976;47.938;7.758;2023-03-05T13:25:17;14.10;45.20
28845;DHT22;15976;47.938;7.758;2023-03-05T13:27:47;14.20;44.90
28845;DHT22;15976;47.938;7.758;2023-03-05T13:32:50;14.40;44.60
28845;DHT22;15976;47.938;7.758;2023-03-05T13:35:18;14.50;44.40
28845;DHT22;15976;47.938;7.758;2023-03-05T13:37:47;14.50;44.10
28845;DHT22;15976;47.938;7.758;2023-03-05T13:40:20;14.50;43.90
28845;DHT22;15976;47.938;7.758;2023-03-05T13:42:49;14.30;43.80
28845;DHT22;15976;47.938;7.758;2023-03-05T13:45:26;14.30;44.00
28845;DHT22;15976;47.938;7.758;2023-03-05T13:48:02;14.20;44.00
28845;DHT22;15976;47.938;7.758;2023-03-05T13:50:33;14.10;44.10
28845;DHT22;15976;47.938;7.758;2023-03-05T13:56:01;13.90;44.30
28845;DHT22;15976;47.938;7.758;2023-03-05T14:03:54;13.30;44.80
28845;DHT22;15976;47.938;7.758;2023-03-05T14:06:24;13.20;44.20
28845;DHT22;15976;47.938;7.758;2023-03-05T14:09:04;13.20;44.20
28845;DHT22;15976;47.938;7.758;2023-03-05T14:11:33;13.10;44.00
28845;DHT22;15976;47.938;7.758;2023-03-05T14:14:15;13.00;43.80
28845;DHT22;15976;47.938;7.758;2023-03-05T14:16:43;12.90;43.80
28845;DHT22;15976;47.938;7.758;2023-03-05T14:22:01;12.80;44.00
28845;DHT22;15976;47.938;7.758;2023-03-05T14:24:28;12.80;44.20
28845;DHT22;15976;47.938;7.758;2023-03-05T14:27:03;12.80;44.20
28845;DHT22;15976;47.938;7.758;2023-03-05T14:29:34;12.80;43.80
28845;DHT22;15976;47.938;7.758;2023-03-05T14:32:03;12.70;43.90
28845;DHT22;15976;47.938;7.758;2023-03-05T14:34:31;12.70;44.00
28845;DHT22;15976;47.938;7.758;2023-03-05T14:38:01;12.60;44.20
28845;DHT22;15976;47.938;7.758;2023-03-05T14:47:52;12.20;44.20
28845;DHT22;15976;47.938;7.758;2023-03-05T14:50:22;12.10;44.00
28845;DHT22;15976;47.938;7.758;2023-03-05T14:52:53;12.10;43.90
28845;DHT22;15976;47.938;7.758;2023-03-05T14:55:23;11.90;43.70
28845;DHT22;15976;47.938;7.758;2023-03-05T14:57:55;11.90;43.70
28845;DHT22;15976;47.938;7.758;2023-03-05T15:00:26;11.90;43.60
28845;DHT22;15976;47.938;7.758;2023-03-05T15:02:54;11.80;43.50
28845;DHT22;15976;47.938;7.758;2023-03-05T15:05:21;11.70;43.50
28845;DHT22;15976;47.938;7.758;2023-03-05T15:07:48;11.60;43.60
28845;DHT22;15976;47.938;7.758;2023-03-05T15:10:22;11.60;43.70
28845;DHT22;15976;47.938;7.758;2023-03-05T15:12:50;11.60;43.80
28845;DHT22;15976;47.938;7.758;2023-03-05T15:15:19;11.50;44.00
28845;DHT22;15976;47.938;7.758;2023-03-05T15:17:49;11.50;44.30
28845;DHT22;15976;47.938;7.758;2023-03-05T15:24:23;11.40;44.10
28845;DHT22;15976;47.938;7.758;2023-03-05T15:26:50;11.40;44.30
28845;DHT22;15976;47.938;7.758;2023-03-05T15:29:18;11.30;44.20
28845;DHT22;15976;47.938;7.758;2023-03-05T15:31:45;11.20;44.10
28845;DHT22;15976;47.938;7.758;2023-03-05T15:34:13;11.20;44.20
28845;DHT22;15976;47.938;7.758;2023-03-05T15:36:40;11.10;44.30
28845;DHT22;15976;47.938;7.758;2023-03-05T15:39:07;11.10;44.40
28845;DHT22;15976;47.938;7.758;2023-03-05T15:41:36;11.10;44.40
28845;DHT22;15976;47.938;7.758;2023-03-05T15:44:03;11.10;44.40
28845;DHT22;15976;47.938;7.758;2023-03-05T15:46:34;11.00;44.20
28845;DHT22;15976;47.938;7.758;2023-03-05T15:49:01;11.00;44.60
28845;DHT22;15976;47.938;7.758;2023-03-05T15:51:28;11.00;44.80
28845;DHT22;15976;47.938;7.758;2023-03-05T15:53:55;11.00;45.10
28845;DHT22;15976;47.938;7.758;2023-03-05T15:56:23;11.00;45.20
28845;DHT22;15976;47.938;7.758;2023-03-05T15:58:50;10.90;45.40
28845;DHT22;15976;47.938;7.758;2023-03-05T16:01:17;10.90;45.50
28845;DHT22;15976;47.938;7.758;2023-03-05T16:03:46;10.90;45.60
28845;DHT22;15976;47.938;7.758;2023-03-05T16:06:14;10.90;45.70
28845;DHT22;15976;47.938;7.758;2023-03-05T16:08:44;10.90;45.80
28845;DHT22;15976;47.938;7.758;2023-03-05T16:11:12;10.90;45.90
28845;DHT22;15976;47.938;7.758;2023-03-05T16:18:02;10.90;46.00
28845;DHT22;15976;47.938;7.758;2023-03-05T16:20:30;10.80;46.40
28845;DHT22;15976;47.938;7.758;2023-03-05T16:22:57;10.70;46.70
28845;DHT22;15976;47.938;7.758;2023-03-05T16:25:55;10.60;47.10
28845;DHT22;15976;47.938;7.758;2023-03-05T16:28:25;10.60;47.70
28845;DHT22;15976;47.938;7.758;2023-03-05T16:30:56;10.50;47.90
28845;DHT22;15976;47.938;7.758;2023-03-05T16:33:24;10.40;48.30
28845;DHT22;15976;47.938;7.758;2023-03-05T16:38:39;10.30;48.90
28845;DHT22;15976;47.938;7.758;2023-03-05T16:41:07;10.20;49.10
28845;DHT22;15976;47.938;7.758;2023-03-05T16:43:34;10.10;49.10
28845;DHT22;15976;47.938;7.758;2023-03-05T16:46:02;10.10;49.40
28845;DHT22;15976;47.938;7.758;2023-03-05T16:48:29;10.00;49.60
28845;DHT22;15976;47.938;7.758;2023-03-05T16:50:56;9.90;49.80
28845;DHT22;15976;47.938;7.758;2023-03-05T16:53:23;9.90;50.10
28845;DHT22;15976;47.938;7.758;2023-03-05T16:55:50;9.80;50.40
28845;DHT22;15976;47.938;7.758;2023-03-05T16:58:18;9.70;50.80
28845;DHT22;15976;47.938;7.758;2023-03-05T17:00:45;9.60;51.00
28845;DHT22;15976;47.938;7.758;2023-03-05T17:03:12;9.60;51.20
28845;DHT22;15976;47.938;7.758;2023-03-05T17:05:39;9.50;51.40
28845;DHT22;15976;47.938;7.758;2023-03-05T17:08:06;9.50;51.50
28845;DHT22;15976;47.938;7.758;2023-03-05T17:10:33;9.30;51.70
28845;DHT22;15976;47.938;7.758;2023-03-05T17:13:01;9.30;52.00
28845;DHT22;15976;47.938;7.758;2023-03-05T17:15:28;9.20;52.10
28845;DHT22;15976;47.938;7.758;2023-03-05T17:17:56;9.10;52.30
28845;DHT22;15976;47.938;7.758;2023-03-05T17:20:23;9.10;52.50
28845;DHT22;15976;47.938;7.758;2023-03-05T17:22:51;9.00;52.70
28845;DHT22;15976;47.938;7.758;2023-03-05T17:25:19;9.00;52.90
28845;DHT22;15976;47.938;7.758;2023-03-05T17:27:46;9.00;53.00
28845;DHT22;15976;47.938;7.758;2023-03-05T17:30:14;8.90;53.10
28845;DHT22;15976;47.938;7.758;2023-03-05T17:32:41;8.90;53.10
28845;DHT22;15976;47.938;7.758;2023-03-05T17:35:16;8.80;53.30
28845;DHT22;15976;47.938;7.758;2023-03-05T17:37:43;8.80;53.70
28845;DHT22;15976;47.938;7.758;2023-03-05T17:40:14;8.80;53.50
28845;DHT22;15976;47.938;7.758;2023-03-05T17:42:41;8.80;53.60
28845;DHT22;15976;47.938;7.758;2023-03-05T17:45:08;8.70;54.40
28845;DHT22;15976;47.938;7.758;2023-03-05T17:47:36;8.60;54.00
28845;DHT22;15976;47.938;7.758;2023-03-05T17:50:09;8.50;54.10